<?xml version="1.0" encoding="UTF-8" standalone="no" ?>
<gpx xmlns="http://www.topografix.com/GPX/1/1" xmlns:xsi="http://www.w3.org/2001/XMLSchema-instance" xsi:schemaLocation="http://www.topografix.com/GPX/1/1 http://www.topografix.com/GPX/1/1/gpx.xsd" version="1.1" creator="VisuGPX - https://www.visugpx.com">
  <metadata>
    <name>2021-05-05 16:28:26</name>
  </metadata>
  <trk>
    <name><![CDATA[2021-05-05 16:28:26]]></name>
    <trkseg>
      <trkpt lat="43.52153" lon="1.49172">
        <ele>180.38</ele>
        <time>2021-05-05T13:06:55Z</time>
      </trkpt>
      <trkpt lat="43.52163" lon="1.49189">
        <ele>180.87</ele>
        <time>2021-05-05T13:07:08Z</time>
      </trkpt>
      <trkpt lat="43.52179" lon="1.49209">
        <ele>180.87</ele>
        <time>2021-05-05T13:07:20Z</time>
      </trkpt>
      <trkpt lat="43.52196" lon="1.49232">
        <ele>180.38</ele>
        <time>2021-05-05T13:07:34Z</time>
      </trkpt>
      <trkpt lat="43.52215" lon="1.49253">
        <ele>180.87</ele>
        <time>2021-05-05T13:07:49Z</time>
      </trkpt>
      <trkpt lat="43.52233" lon="1.49257">
        <ele>180.38</ele>
        <time>2021-05-05T13:08:01Z</time>
      </trkpt>
      <trkpt lat="43.52234" lon="1.49256">
        <ele>180.38</ele>
        <time>2021-05-05T13:08:02Z</time>
      </trkpt>
      <trkpt lat="43.52235" lon="1.49256">
        <ele>180.38</ele>
        <time>2021-05-05T13:08:03Z</time>
      </trkpt>
      <trkpt lat="43.52237" lon="1.49257">
        <ele>180.38</ele>
        <time>2021-05-05T13:08:04Z</time>
      </trkpt>
      <trkpt lat="43.52238" lon="1.49257">
        <ele>180.38</ele>
        <time>2021-05-05T13:08:05Z</time>
      </trkpt>
      <trkpt lat="43.52239" lon="1.49257">
        <ele>180.38</ele>
        <time>2021-05-05T13:08:06Z</time>
      </trkpt>
      <trkpt lat="43.52241" lon="1.49257">
        <ele>181.83</ele>
        <time>2021-05-05T13:08:07Z</time>
      </trkpt>
      <trkpt lat="43.52242" lon="1.49256">
        <ele>181.83</ele>
        <time>2021-05-05T13:08:08Z</time>
      </trkpt>
      <trkpt lat="43.52257" lon="1.49254">
        <ele>182.79</ele>
        <time>2021-05-05T13:08:18Z</time>
      </trkpt>
      <trkpt lat="43.52274" lon="1.49246">
        <ele>182.31</ele>
        <time>2021-05-05T13:08:32Z</time>
      </trkpt>
      <trkpt lat="43.52299" lon="1.49221">
        <ele>181.35</ele>
        <time>2021-05-05T13:08:51Z</time>
      </trkpt>
      <trkpt lat="43.52319" lon="1.49199">
        <ele>181.35</ele>
        <time>2021-05-05T13:09:07Z</time>
      </trkpt>
      <trkpt lat="43.52321" lon="1.49196">
        <ele>181.35</ele>
        <time>2021-05-05T13:09:09Z</time>
      </trkpt>
      <trkpt lat="43.52316" lon="1.49166">
        <ele>181.35</ele>
        <time>2021-05-05T13:09:23Z</time>
      </trkpt>
      <trkpt lat="43.52308" lon="1.49149">
        <ele>181.35</ele>
        <time>2021-05-05T13:09:35Z</time>
      </trkpt>
      <trkpt lat="43.52308" lon="1.49148">
        <ele>181.35</ele>
        <time>2021-05-05T13:09:36Z</time>
      </trkpt>
      <trkpt lat="43.52307" lon="1.49146">
        <ele>181.35</ele>
        <time>2021-05-05T13:09:37Z</time>
      </trkpt>
      <trkpt lat="43.52307" lon="1.49144">
        <ele>181.35</ele>
        <time>2021-05-05T13:09:38Z</time>
      </trkpt>
      <trkpt lat="43.52306" lon="1.49142">
        <ele>182.31</ele>
        <time>2021-05-05T13:09:39Z</time>
      </trkpt>
      <trkpt lat="43.52314" lon="1.49122">
        <ele>183.27</ele>
        <time>2021-05-05T13:09:53Z</time>
      </trkpt>
      <trkpt lat="43.5233" lon="1.49107">
        <ele>183.27</ele>
        <time>2021-05-05T13:10:09Z</time>
      </trkpt>
      <trkpt lat="43.52347" lon="1.4909">
        <ele>183.27</ele>
        <time>2021-05-05T13:10:24Z</time>
      </trkpt>
      <trkpt lat="43.52369" lon="1.49072">
        <ele>183.27</ele>
        <time>2021-05-05T13:10:39Z</time>
      </trkpt>
      <trkpt lat="43.52385" lon="1.49053">
        <ele>183.75</ele>
        <time>2021-05-05T13:10:54Z</time>
      </trkpt>
      <trkpt lat="43.52402" lon="1.49031">
        <ele>185.19</ele>
        <time>2021-05-05T13:11:09Z</time>
      </trkpt>
      <trkpt lat="43.5241" lon="1.49013">
        <ele>185.67</ele>
        <time>2021-05-05T13:11:20Z</time>
      </trkpt>
      <trkpt lat="43.52428" lon="1.4899">
        <ele>185.67</ele>
        <time>2021-05-05T13:11:35Z</time>
      </trkpt>
      <trkpt lat="43.52445" lon="1.48964">
        <ele>186.15</ele>
        <time>2021-05-05T13:11:55Z</time>
      </trkpt>
      <trkpt lat="43.52462" lon="1.48945">
        <ele>186.15</ele>
        <time>2021-05-05T13:12:11Z</time>
      </trkpt>
      <trkpt lat="43.52467" lon="1.48938">
        <ele>186.15</ele>
        <time>2021-05-05T13:12:15Z</time>
      </trkpt>
      <trkpt lat="43.52467" lon="1.48925">
        <ele>186.63</ele>
        <time>2021-05-05T13:12:20Z</time>
      </trkpt>
      <trkpt lat="43.52455" lon="1.48894">
        <ele>187.11</ele>
        <time>2021-05-05T13:12:36Z</time>
      </trkpt>
      <trkpt lat="43.52438" lon="1.48865">
        <ele>187.59</ele>
        <time>2021-05-05T13:12:55Z</time>
      </trkpt>
      <trkpt lat="43.52437" lon="1.48863">
        <ele>187.59</ele>
        <time>2021-05-05T13:12:57Z</time>
      </trkpt>
      <trkpt lat="43.52432" lon="1.48847">
        <ele>188.08</ele>
        <time>2021-05-05T13:13:09Z</time>
      </trkpt>
      <trkpt lat="43.52449" lon="1.48828">
        <ele>188.56</ele>
        <time>2021-05-05T13:13:25Z</time>
      </trkpt>
      <trkpt lat="43.52463" lon="1.48845">
        <ele>188.56</ele>
        <time>2021-05-05T13:13:38Z</time>
      </trkpt>
      <trkpt lat="43.52471" lon="1.48859">
        <ele>188.56</ele>
        <time>2021-05-05T13:13:47Z</time>
      </trkpt>
      <trkpt lat="43.52486" lon="1.48878">
        <ele>186.15</ele>
        <time>2021-05-05T13:14:03Z</time>
      </trkpt>
      <trkpt lat="43.52487" lon="1.48883">
        <ele>185.67</ele>
        <time>2021-05-05T13:14:06Z</time>
      </trkpt>
      <trkpt lat="43.52493" lon="1.48889">
        <ele>185.67</ele>
        <time>2021-05-05T13:14:10Z</time>
      </trkpt>
      <trkpt lat="43.52514" lon="1.48876">
        <ele>185.67</ele>
        <time>2021-05-05T13:14:24Z</time>
      </trkpt>
      <trkpt lat="43.52529" lon="1.4886">
        <ele>185.19</ele>
        <time>2021-05-05T13:14:37Z</time>
      </trkpt>
      <trkpt lat="43.52542" lon="1.48836">
        <ele>184.23</ele>
        <time>2021-05-05T13:14:51Z</time>
      </trkpt>
      <trkpt lat="43.52543" lon="1.48806">
        <ele>184.23</ele>
        <time>2021-05-05T13:15:07Z</time>
      </trkpt>
      <trkpt lat="43.52544" lon="1.48801">
        <ele>185.19</ele>
        <time>2021-05-05T13:15:10Z</time>
      </trkpt>
      <trkpt lat="43.52555" lon="1.48769">
        <ele>186.15</ele>
        <time>2021-05-05T13:15:27Z</time>
      </trkpt>
      <trkpt lat="43.52563" lon="1.48757">
        <ele>186.63</ele>
        <time>2021-05-05T13:15:35Z</time>
      </trkpt>
      <trkpt lat="43.52574" lon="1.48756">
        <ele>187.11</ele>
        <time>2021-05-05T13:15:43Z</time>
      </trkpt>
      <trkpt lat="43.52581" lon="1.48757">
        <ele>185.19</ele>
        <time>2021-05-05T13:15:50Z</time>
      </trkpt>
      <trkpt lat="43.52596" lon="1.48776">
        <ele>184.23</ele>
        <time>2021-05-05T13:16:05Z</time>
      </trkpt>
      <trkpt lat="43.52604" lon="1.4878">
        <ele>183.75</ele>
        <time>2021-05-05T13:16:13Z</time>
      </trkpt>
      <trkpt lat="43.52624" lon="1.48789">
        <ele>181.83</ele>
        <time>2021-05-05T13:16:30Z</time>
      </trkpt>
      <trkpt lat="43.52626" lon="1.4879">
        <ele>182.31</ele>
        <time>2021-05-05T13:16:32Z</time>
      </trkpt>
      <trkpt lat="43.52629" lon="1.48792">
        <ele>181.83</ele>
        <time>2021-05-05T13:16:34Z</time>
      </trkpt>
      <trkpt lat="43.52646" lon="1.48805">
        <ele>181.35</ele>
        <time>2021-05-05T13:16:48Z</time>
      </trkpt>
      <trkpt lat="43.52664" lon="1.48821">
        <ele>178.94</ele>
        <time>2021-05-05T13:17:04Z</time>
      </trkpt>
      <trkpt lat="43.52682" lon="1.48836">
        <ele>177.02</ele>
        <time>2021-05-05T13:17:17Z</time>
      </trkpt>
      <trkpt lat="43.52705" lon="1.48854">
        <ele>174.62</ele>
        <time>2021-05-05T13:17:32Z</time>
      </trkpt>
      <trkpt lat="43.52721" lon="1.48872">
        <ele>172.69</ele>
        <time>2021-05-05T13:17:46Z</time>
      </trkpt>
      <trkpt lat="43.52736" lon="1.48893">
        <ele>170.77</ele>
        <time>2021-05-05T13:18:00Z</time>
      </trkpt>
      <trkpt lat="43.52752" lon="1.48913">
        <ele>168.85</ele>
        <time>2021-05-05T13:18:14Z</time>
      </trkpt>
      <trkpt lat="43.52755" lon="1.4892">
        <ele>168.37</ele>
        <time>2021-05-05T13:18:19Z</time>
      </trkpt>
      <trkpt lat="43.52762" lon="1.48925">
        <ele>168.37</ele>
        <time>2021-05-05T13:18:24Z</time>
      </trkpt>
      <trkpt lat="43.52783" lon="1.48921">
        <ele>168.37</ele>
        <time>2021-05-05T13:18:38Z</time>
      </trkpt>
      <trkpt lat="43.52794" lon="1.489">
        <ele>170.77</ele>
        <time>2021-05-05T13:18:51Z</time>
      </trkpt>
      <trkpt lat="43.52794" lon="1.48886">
        <ele>172.69</ele>
        <time>2021-05-05T13:18:59Z</time>
      </trkpt>
      <trkpt lat="43.52793" lon="1.48882">
        <ele>172.69</ele>
        <time>2021-05-05T13:19:01Z</time>
      </trkpt>
      <trkpt lat="43.52793" lon="1.48881">
        <ele>172.69</ele>
        <time>2021-05-05T13:19:02Z</time>
      </trkpt>
      <trkpt lat="43.52793" lon="1.48844">
        <ele>176.06</ele>
        <time>2021-05-05T13:19:21Z</time>
      </trkpt>
      <trkpt lat="43.528" lon="1.48817">
        <ele>177.5</ele>
        <time>2021-05-05T13:19:36Z</time>
      </trkpt>
      <trkpt lat="43.52816" lon="1.48795">
        <ele>179.42</ele>
        <time>2021-05-05T13:19:54Z</time>
      </trkpt>
      <trkpt lat="43.52818" lon="1.48792">
        <ele>179.42</ele>
        <time>2021-05-05T13:19:56Z</time>
      </trkpt>
      <trkpt lat="43.52819" lon="1.48791">
        <ele>179.42</ele>
        <time>2021-05-05T13:19:57Z</time>
      </trkpt>
      <trkpt lat="43.52828" lon="1.4877">
        <ele>179.9</ele>
        <time>2021-05-05T13:20:07Z</time>
      </trkpt>
      <trkpt lat="43.52829" lon="1.48767">
        <ele>179.9</ele>
        <time>2021-05-05T13:20:08Z</time>
      </trkpt>
      <trkpt lat="43.52841" lon="1.48738">
        <ele>180.38</ele>
        <time>2021-05-05T13:20:21Z</time>
      </trkpt>
      <trkpt lat="43.52852" lon="1.48717">
        <ele>180.87</ele>
        <time>2021-05-05T13:20:33Z</time>
      </trkpt>
      <trkpt lat="43.52866" lon="1.48712">
        <ele>180.38</ele>
        <time>2021-05-05T13:20:45Z</time>
      </trkpt>
      <trkpt lat="43.5288" lon="1.48707">
        <ele>180.38</ele>
        <time>2021-05-05T13:20:56Z</time>
      </trkpt>
      <trkpt lat="43.52898" lon="1.48693">
        <ele>183.27</ele>
        <time>2021-05-05T13:21:13Z</time>
      </trkpt>
      <trkpt lat="43.52899" lon="1.48691">
        <ele>183.27</ele>
        <time>2021-05-05T13:21:14Z</time>
      </trkpt>
      <trkpt lat="43.529" lon="1.48689">
        <ele>183.27</ele>
        <time>2021-05-05T13:21:15Z</time>
      </trkpt>
      <trkpt lat="43.52901" lon="1.48687">
        <ele>183.27</ele>
        <time>2021-05-05T13:21:16Z</time>
      </trkpt>
      <trkpt lat="43.52905" lon="1.48679">
        <ele>183.75</ele>
        <time>2021-05-05T13:21:19Z</time>
      </trkpt>
      <trkpt lat="43.52909" lon="1.48674">
        <ele>183.75</ele>
        <time>2021-05-05T13:21:21Z</time>
      </trkpt>
      <trkpt lat="43.52925" lon="1.48657">
        <ele>185.67</ele>
        <time>2021-05-05T13:21:36Z</time>
      </trkpt>
      <trkpt lat="43.52949" lon="1.48642">
        <ele>188.08</ele>
        <time>2021-05-05T13:21:52Z</time>
      </trkpt>
      <trkpt lat="43.52966" lon="1.48629">
        <ele>189.04</ele>
        <time>2021-05-05T13:22:07Z</time>
      </trkpt>
      <trkpt lat="43.52982" lon="1.48617">
        <ele>189.52</ele>
        <time>2021-05-05T13:22:21Z</time>
      </trkpt>
      <trkpt lat="43.52984" lon="1.48611">
        <ele>188.56</ele>
        <time>2021-05-05T13:22:24Z</time>
      </trkpt>
      <trkpt lat="43.52985" lon="1.48608">
        <ele>188.56</ele>
        <time>2021-05-05T13:22:25Z</time>
      </trkpt>
      <trkpt lat="43.52989" lon="1.48581">
        <ele>189.52</ele>
        <time>2021-05-05T13:22:37Z</time>
      </trkpt>
      <trkpt lat="43.52986" lon="1.48578">
        <ele>190.48</ele>
        <time>2021-05-05T13:22:40Z</time>
      </trkpt>
      <trkpt lat="43.52982" lon="1.48555">
        <ele>191.92</ele>
        <time>2021-05-05T13:22:53Z</time>
      </trkpt>
      <trkpt lat="43.52979" lon="1.48544">
        <ele>192.4</ele>
        <time>2021-05-05T13:23:03Z</time>
      </trkpt>
      <trkpt lat="43.52988" lon="1.48525">
        <ele>192.88</ele>
        <time>2021-05-05T13:23:20Z</time>
      </trkpt>
      <trkpt lat="43.53" lon="1.48503">
        <ele>192.88</ele>
        <time>2021-05-05T13:23:35Z</time>
      </trkpt>
      <trkpt lat="43.53015" lon="1.48482">
        <ele>193.36</ele>
        <time>2021-05-05T13:23:50Z</time>
      </trkpt>
      <trkpt lat="43.5303" lon="1.4846">
        <ele>193.36</ele>
        <time>2021-05-05T13:24:06Z</time>
      </trkpt>
      <trkpt lat="43.53043" lon="1.48439">
        <ele>193.84</ele>
        <time>2021-05-05T13:24:21Z</time>
      </trkpt>
      <trkpt lat="43.53047" lon="1.48423">
        <ele>193.84</ele>
        <time>2021-05-05T13:24:35Z</time>
      </trkpt>
      <trkpt lat="43.53049" lon="1.4841">
        <ele>193.84</ele>
        <time>2021-05-05T13:24:46Z</time>
      </trkpt>
      <trkpt lat="43.53051" lon="1.48406">
        <ele>192.88</ele>
        <time>2021-05-05T13:25:13Z</time>
      </trkpt>
      <trkpt lat="43.53049" lon="1.48407">
        <ele>194.32</ele>
        <time>2021-05-05T13:25:35Z</time>
      </trkpt>
      <trkpt lat="43.53051" lon="1.48408">
        <ele>194.32</ele>
        <time>2021-05-05T13:25:46Z</time>
      </trkpt>
      <trkpt lat="43.53047" lon="1.48405">
        <ele>194.32</ele>
        <time>2021-05-05T13:25:50Z</time>
      </trkpt>
      <trkpt lat="43.53023" lon="1.48391">
        <ele>196.25</ele>
        <time>2021-05-05T13:26:07Z</time>
      </trkpt>
      <trkpt lat="43.53011" lon="1.48375">
        <ele>197.69</ele>
        <time>2021-05-05T13:26:19Z</time>
      </trkpt>
      <trkpt lat="43.52997" lon="1.48357">
        <ele>200.57</ele>
        <time>2021-05-05T13:26:31Z</time>
      </trkpt>
      <trkpt lat="43.52996" lon="1.48356">
        <ele>198.65</ele>
        <time>2021-05-05T13:26:32Z</time>
      </trkpt>
      <trkpt lat="43.52988" lon="1.48346">
        <ele>198.65</ele>
        <time>2021-05-05T13:26:39Z</time>
      </trkpt>
      <trkpt lat="43.52975" lon="1.48315">
        <ele>200.09</ele>
        <time>2021-05-05T13:26:57Z</time>
      </trkpt>
      <trkpt lat="43.52963" lon="1.4829">
        <ele>200.09</ele>
        <time>2021-05-05T13:27:13Z</time>
      </trkpt>
      <trkpt lat="43.52938" lon="1.48285">
        <ele>198.65</ele>
        <time>2021-05-05T13:27:31Z</time>
      </trkpt>
      <trkpt lat="43.52916" lon="1.48299">
        <ele>197.21</ele>
        <time>2021-05-05T13:27:46Z</time>
      </trkpt>
      <trkpt lat="43.5291" lon="1.48304">
        <ele>195.77</ele>
        <time>2021-05-05T13:27:51Z</time>
      </trkpt>
      <trkpt lat="43.52903" lon="1.48302">
        <ele>193.84</ele>
        <time>2021-05-05T13:28:01Z</time>
      </trkpt>
      <trkpt lat="43.5291" lon="1.48294">
        <ele>194.8</ele>
        <time>2021-05-05T13:28:14Z</time>
      </trkpt>
      <trkpt lat="43.52911" lon="1.48293">
        <ele>194.8</ele>
        <time>2021-05-05T13:28:15Z</time>
      </trkpt>
      <trkpt lat="43.52927" lon="1.48266">
        <ele>196.25</ele>
        <time>2021-05-05T13:28:31Z</time>
      </trkpt>
      <trkpt lat="43.52943" lon="1.48243">
        <ele>196.25</ele>
        <time>2021-05-05T13:28:45Z</time>
      </trkpt>
      <trkpt lat="43.52947" lon="1.4824">
        <ele>196.25</ele>
        <time>2021-05-05T13:28:49Z</time>
      </trkpt>
      <trkpt lat="43.52966" lon="1.48215">
        <ele>198.17</ele>
        <time>2021-05-05T13:29:05Z</time>
      </trkpt>
      <trkpt lat="43.52974" lon="1.48203">
        <ele>197.21</ele>
        <time>2021-05-05T13:29:14Z</time>
      </trkpt>
      <trkpt lat="43.52975" lon="1.48201">
        <ele>196.73</ele>
        <time>2021-05-05T13:29:16Z</time>
      </trkpt>
      <trkpt lat="43.52988" lon="1.48177">
        <ele>196.73</ele>
        <time>2021-05-05T13:29:32Z</time>
      </trkpt>
      <trkpt lat="43.52999" lon="1.48153">
        <ele>196.25</ele>
        <time>2021-05-05T13:29:46Z</time>
      </trkpt>
      <trkpt lat="43.53016" lon="1.48128">
        <ele>195.28</ele>
        <time>2021-05-05T13:30:02Z</time>
      </trkpt>
      <trkpt lat="43.53019" lon="1.48124">
        <ele>195.28</ele>
        <time>2021-05-05T13:30:05Z</time>
      </trkpt>
      <trkpt lat="43.53021" lon="1.48117">
        <ele>194.32</ele>
        <time>2021-05-05T13:30:09Z</time>
      </trkpt>
      <trkpt lat="43.53036" lon="1.48096">
        <ele>193.36</ele>
        <time>2021-05-05T13:30:24Z</time>
      </trkpt>
      <trkpt lat="43.53041" lon="1.48087">
        <ele>193.36</ele>
        <time>2021-05-05T13:30:29Z</time>
      </trkpt>
      <trkpt lat="43.53043" lon="1.48071">
        <ele>191.44</ele>
        <time>2021-05-05T13:30:37Z</time>
      </trkpt>
      <trkpt lat="43.53037" lon="1.48055">
        <ele>191.44</ele>
        <time>2021-05-05T13:30:45Z</time>
      </trkpt>
      <trkpt lat="43.53025" lon="1.48028">
        <ele>190.96</ele>
        <time>2021-05-05T13:31:03Z</time>
      </trkpt>
      <trkpt lat="43.53012" lon="1.48005">
        <ele>190</ele>
        <time>2021-05-05T13:31:17Z</time>
      </trkpt>
      <trkpt lat="43.53006" lon="1.47993">
        <ele>190</ele>
        <time>2021-05-05T13:31:24Z</time>
      </trkpt>
      <trkpt lat="43.52992" lon="1.47969">
        <ele>189.52</ele>
        <time>2021-05-05T13:31:38Z</time>
      </trkpt>
      <trkpt lat="43.5298" lon="1.47948">
        <ele>189.04</ele>
        <time>2021-05-05T13:31:50Z</time>
      </trkpt>
      <trkpt lat="43.52972" lon="1.47916">
        <ele>189.04</ele>
        <time>2021-05-05T13:32:07Z</time>
      </trkpt>
      <trkpt lat="43.52974" lon="1.47884">
        <ele>190.96</ele>
        <time>2021-05-05T13:32:22Z</time>
      </trkpt>
      <trkpt lat="43.52975" lon="1.47853">
        <ele>190.96</ele>
        <time>2021-05-05T13:32:36Z</time>
      </trkpt>
      <trkpt lat="43.52971" lon="1.47838">
        <ele>190.96</ele>
        <time>2021-05-05T13:32:44Z</time>
      </trkpt>
      <trkpt lat="43.52963" lon="1.47824">
        <ele>191.44</ele>
        <time>2021-05-05T13:32:52Z</time>
      </trkpt>
      <trkpt lat="43.52939" lon="1.47799">
        <ele>191.92</ele>
        <time>2021-05-05T13:33:09Z</time>
      </trkpt>
      <trkpt lat="43.5292" lon="1.4778">
        <ele>192.88</ele>
        <time>2021-05-05T13:33:24Z</time>
      </trkpt>
      <trkpt lat="43.52901" lon="1.47764">
        <ele>195.28</ele>
        <time>2021-05-05T13:33:39Z</time>
      </trkpt>
      <trkpt lat="43.52884" lon="1.4776">
        <ele>196.25</ele>
        <time>2021-05-05T13:33:51Z</time>
      </trkpt>
      <trkpt lat="43.52852" lon="1.47756">
        <ele>199.13</ele>
        <time>2021-05-05T13:34:09Z</time>
      </trkpt>
      <trkpt lat="43.52827" lon="1.47757">
        <ele>201.53</ele>
        <time>2021-05-05T13:34:28Z</time>
      </trkpt>
      <trkpt lat="43.52819" lon="1.47749">
        <ele>202.49</ele>
        <time>2021-05-05T13:34:38Z</time>
      </trkpt>
      <trkpt lat="43.52796" lon="1.47728">
        <ele>204.42</ele>
        <time>2021-05-05T13:34:56Z</time>
      </trkpt>
      <trkpt lat="43.52769" lon="1.47722">
        <ele>205.86</ele>
        <time>2021-05-05T13:35:10Z</time>
      </trkpt>
      <trkpt lat="43.52744" lon="1.47721">
        <ele>205.86</ele>
        <time>2021-05-05T13:35:26Z</time>
      </trkpt>
      <trkpt lat="43.52723" lon="1.47711">
        <ele>205.86</ele>
        <time>2021-05-05T13:35:39Z</time>
      </trkpt>
      <trkpt lat="43.52703" lon="1.47699">
        <ele>206.34</ele>
        <time>2021-05-05T13:35:52Z</time>
      </trkpt>
      <trkpt lat="43.52683" lon="1.47682">
        <ele>207.3</ele>
        <time>2021-05-05T13:36:06Z</time>
      </trkpt>
      <trkpt lat="43.5266" lon="1.47659">
        <ele>207.3</ele>
        <time>2021-05-05T13:36:23Z</time>
      </trkpt>
      <trkpt lat="43.52643" lon="1.47638">
        <ele>207.3</ele>
        <time>2021-05-05T13:36:38Z</time>
      </trkpt>
      <trkpt lat="43.52625" lon="1.47615">
        <ele>207.78</ele>
        <time>2021-05-05T13:36:54Z</time>
      </trkpt>
      <trkpt lat="43.52624" lon="1.47614">
        <ele>207.78</ele>
        <time>2021-05-05T13:36:55Z</time>
      </trkpt>
      <trkpt lat="43.52622" lon="1.47612">
        <ele>207.78</ele>
        <time>2021-05-05T13:36:56Z</time>
      </trkpt>
      <trkpt lat="43.52621" lon="1.47611">
        <ele>206.34</ele>
        <time>2021-05-05T13:36:57Z</time>
      </trkpt>
      <trkpt lat="43.52619" lon="1.47609">
        <ele>206.34</ele>
        <time>2021-05-05T13:36:58Z</time>
      </trkpt>
      <trkpt lat="43.52602" lon="1.47582">
        <ele>204.9</ele>
        <time>2021-05-05T13:37:13Z</time>
      </trkpt>
      <trkpt lat="43.52589" lon="1.47563">
        <ele>204.42</ele>
        <time>2021-05-05T13:37:25Z</time>
      </trkpt>
      <trkpt lat="43.52577" lon="1.47543">
        <ele>205.86</ele>
        <time>2021-05-05T13:37:37Z</time>
      </trkpt>
      <trkpt lat="43.52576" lon="1.4754">
        <ele>205.86</ele>
        <time>2021-05-05T13:37:38Z</time>
      </trkpt>
      <trkpt lat="43.52576" lon="1.47538">
        <ele>205.86</ele>
        <time>2021-05-05T13:37:39Z</time>
      </trkpt>
      <trkpt lat="43.5257" lon="1.47505">
        <ele>206.34</ele>
        <time>2021-05-05T13:37:55Z</time>
      </trkpt>
      <trkpt lat="43.52569" lon="1.47463">
        <ele>207.78</ele>
        <time>2021-05-05T13:38:13Z</time>
      </trkpt>
      <trkpt lat="43.5257" lon="1.47456">
        <ele>207.78</ele>
        <time>2021-05-05T13:38:17Z</time>
      </trkpt>
      <trkpt lat="43.5257" lon="1.47454">
        <ele>207.78</ele>
        <time>2021-05-05T13:38:18Z</time>
      </trkpt>
      <trkpt lat="43.5257" lon="1.47452">
        <ele>207.78</ele>
        <time>2021-05-05T13:38:19Z</time>
      </trkpt>
      <trkpt lat="43.52565" lon="1.4742">
        <ele>210.19</ele>
        <time>2021-05-05T13:38:33Z</time>
      </trkpt>
      <trkpt lat="43.52564" lon="1.47385">
        <ele>213.07</ele>
        <time>2021-05-05T13:38:50Z</time>
      </trkpt>
      <trkpt lat="43.52567" lon="1.47357">
        <ele>215.95</ele>
        <time>2021-05-05T13:39:05Z</time>
      </trkpt>
      <trkpt lat="43.52563" lon="1.47332">
        <ele>218.84</ele>
        <time>2021-05-05T13:39:21Z</time>
      </trkpt>
      <trkpt lat="43.52563" lon="1.47331">
        <ele>219.32</ele>
        <time>2021-05-05T13:39:22Z</time>
      </trkpt>
      <trkpt lat="43.52562" lon="1.47309">
        <ele>221.24</ele>
        <time>2021-05-05T13:39:34Z</time>
      </trkpt>
      <trkpt lat="43.52563" lon="1.47307">
        <ele>221.72</ele>
        <time>2021-05-05T13:39:35Z</time>
      </trkpt>
      <trkpt lat="43.52563" lon="1.47305">
        <ele>221.72</ele>
        <time>2021-05-05T13:39:36Z</time>
      </trkpt>
      <trkpt lat="43.52564" lon="1.47303">
        <ele>221.72</ele>
        <time>2021-05-05T13:39:37Z</time>
      </trkpt>
      <trkpt lat="43.52564" lon="1.47301">
        <ele>221.72</ele>
        <time>2021-05-05T13:39:38Z</time>
      </trkpt>
      <trkpt lat="43.52564" lon="1.47298">
        <ele>222.2</ele>
        <time>2021-05-05T13:39:39Z</time>
      </trkpt>
      <trkpt lat="43.52555" lon="1.47261">
        <ele>225.09</ele>
        <time>2021-05-05T13:39:57Z</time>
      </trkpt>
      <trkpt lat="43.52549" lon="1.47229">
        <ele>227.97</ele>
        <time>2021-05-05T13:40:13Z</time>
      </trkpt>
      <trkpt lat="43.5255" lon="1.47203">
        <ele>230.37</ele>
        <time>2021-05-05T13:40:28Z</time>
      </trkpt>
      <trkpt lat="43.52558" lon="1.47183">
        <ele>232.3</ele>
        <time>2021-05-05T13:40:43Z</time>
      </trkpt>
      <trkpt lat="43.52558" lon="1.47175">
        <ele>232.78</ele>
        <time>2021-05-05T13:40:59Z</time>
      </trkpt>
      <trkpt lat="43.52556" lon="1.47173">
        <ele>233.26</ele>
        <time>2021-05-05T13:41:12Z</time>
      </trkpt>
      <trkpt lat="43.52556" lon="1.47174">
        <ele>233.26</ele>
        <time>2021-05-05T13:41:38Z</time>
      </trkpt>
      <trkpt lat="43.52554" lon="1.47176">
        <ele>233.26</ele>
        <time>2021-05-05T13:42:03Z</time>
      </trkpt>
      <trkpt lat="43.52555" lon="1.47176">
        <ele>233.26</ele>
        <time>2021-05-05T13:42:19Z</time>
      </trkpt>
      <trkpt lat="43.52556" lon="1.47173">
        <ele>233.26</ele>
        <time>2021-05-05T13:42:44Z</time>
      </trkpt>
      <trkpt lat="43.52556" lon="1.47173">
        <ele>233.26</ele>
        <time>2021-05-05T13:43:14Z</time>
      </trkpt>
      <trkpt lat="43.52557" lon="1.47172">
        <ele>233.26</ele>
        <time>2021-05-05T13:43:45Z</time>
      </trkpt>
      <trkpt lat="43.52556" lon="1.47169">
        <ele>233.26</ele>
        <time>2021-05-05T13:44:07Z</time>
      </trkpt>
      <trkpt lat="43.52555" lon="1.47167">
        <ele>233.26</ele>
        <time>2021-05-05T13:44:08Z</time>
      </trkpt>
      <trkpt lat="43.52543" lon="1.47148">
        <ele>234.22</ele>
        <time>2021-05-05T13:44:24Z</time>
      </trkpt>
      <trkpt lat="43.52522" lon="1.47121">
        <ele>235.18</ele>
        <time>2021-05-05T13:44:44Z</time>
      </trkpt>
      <trkpt lat="43.525" lon="1.47101">
        <ele>235.66</ele>
        <time>2021-05-05T13:45:01Z</time>
      </trkpt>
      <trkpt lat="43.52474" lon="1.47083">
        <ele>237.1</ele>
        <time>2021-05-05T13:45:22Z</time>
      </trkpt>
      <trkpt lat="43.52445" lon="1.47075">
        <ele>239.02</ele>
        <time>2021-05-05T13:45:42Z</time>
      </trkpt>
      <trkpt lat="43.5242" lon="1.47085">
        <ele>238.54</ele>
        <time>2021-05-05T13:45:59Z</time>
      </trkpt>
      <trkpt lat="43.52413" lon="1.47095">
        <ele>238.54</ele>
        <time>2021-05-05T13:46:07Z</time>
      </trkpt>
      <trkpt lat="43.52409" lon="1.47101">
        <ele>239.99</ele>
        <time>2021-05-05T13:46:11Z</time>
      </trkpt>
      <trkpt lat="43.52395" lon="1.47128">
        <ele>240.47</ele>
        <time>2021-05-05T13:46:28Z</time>
      </trkpt>
      <trkpt lat="43.52382" lon="1.47152">
        <ele>240.47</ele>
        <time>2021-05-05T13:46:43Z</time>
      </trkpt>
      <trkpt lat="43.52365" lon="1.4719">
        <ele>240.47</ele>
        <time>2021-05-05T13:47:03Z</time>
      </trkpt>
      <trkpt lat="43.52352" lon="1.47222">
        <ele>240.47</ele>
        <time>2021-05-05T13:47:21Z</time>
      </trkpt>
      <trkpt lat="43.52349" lon="1.47228">
        <ele>239.02</ele>
        <time>2021-05-05T13:47:24Z</time>
      </trkpt>
      <trkpt lat="43.5233" lon="1.47243">
        <ele>239.02</ele>
        <time>2021-05-05T13:47:37Z</time>
      </trkpt>
      <trkpt lat="43.52312" lon="1.47262">
        <ele>239.02</ele>
        <time>2021-05-05T13:47:53Z</time>
      </trkpt>
      <trkpt lat="43.52295" lon="1.47291">
        <ele>239.51</ele>
        <time>2021-05-05T13:48:09Z</time>
      </trkpt>
      <trkpt lat="43.52278" lon="1.47318">
        <ele>239.51</ele>
        <time>2021-05-05T13:48:26Z</time>
      </trkpt>
      <trkpt lat="43.5226" lon="1.47337">
        <ele>239.51</ele>
        <time>2021-05-05T13:48:42Z</time>
      </trkpt>
      <trkpt lat="43.52247" lon="1.47334">
        <ele>240.47</ele>
        <time>2021-05-05T13:48:54Z</time>
      </trkpt>
      <trkpt lat="43.5223" lon="1.47311">
        <ele>241.43</ele>
        <time>2021-05-05T13:49:12Z</time>
      </trkpt>
      <trkpt lat="43.52227" lon="1.47304">
        <ele>241.43</ele>
        <time>2021-05-05T13:49:16Z</time>
      </trkpt>
      <trkpt lat="43.52226" lon="1.47303">
        <ele>241.91</ele>
        <time>2021-05-05T13:49:17Z</time>
      </trkpt>
      <trkpt lat="43.52225" lon="1.47302">
        <ele>241.91</ele>
        <time>2021-05-05T13:49:18Z</time>
      </trkpt>
      <trkpt lat="43.52224" lon="1.47301">
        <ele>241.91</ele>
        <time>2021-05-05T13:49:19Z</time>
      </trkpt>
      <trkpt lat="43.52211" lon="1.47281">
        <ele>242.39</ele>
        <time>2021-05-05T13:49:34Z</time>
      </trkpt>
      <trkpt lat="43.52189" lon="1.47264">
        <ele>243.83</ele>
        <time>2021-05-05T13:49:49Z</time>
      </trkpt>
      <trkpt lat="43.5217" lon="1.47246">
        <ele>245.27</ele>
        <time>2021-05-05T13:50:04Z</time>
      </trkpt>
      <trkpt lat="43.52153" lon="1.47226">
        <ele>246.72</ele>
        <time>2021-05-05T13:50:20Z</time>
      </trkpt>
      <trkpt lat="43.52134" lon="1.4721">
        <ele>247.68</ele>
        <time>2021-05-05T13:50:34Z</time>
      </trkpt>
      <trkpt lat="43.52123" lon="1.47198">
        <ele>249.12</ele>
        <time>2021-05-05T13:50:47Z</time>
      </trkpt>
      <trkpt lat="43.52119" lon="1.47195">
        <ele>249.12</ele>
        <time>2021-05-05T13:50:50Z</time>
      </trkpt>
      <trkpt lat="43.52118" lon="1.47194">
        <ele>249.12</ele>
        <time>2021-05-05T13:50:51Z</time>
      </trkpt>
      <trkpt lat="43.52116" lon="1.47193">
        <ele>249.12</ele>
        <time>2021-05-05T13:50:52Z</time>
      </trkpt>
      <trkpt lat="43.52115" lon="1.47192">
        <ele>249.12</ele>
        <time>2021-05-05T13:50:53Z</time>
      </trkpt>
      <trkpt lat="43.52113" lon="1.47191">
        <ele>249.6</ele>
        <time>2021-05-05T13:50:54Z</time>
      </trkpt>
      <trkpt lat="43.52112" lon="1.4719">
        <ele>249.6</ele>
        <time>2021-05-05T13:50:55Z</time>
      </trkpt>
      <trkpt lat="43.52111" lon="1.47189">
        <ele>250.08</ele>
        <time>2021-05-05T13:50:56Z</time>
      </trkpt>
      <trkpt lat="43.5211" lon="1.47189">
        <ele>250.08</ele>
        <time>2021-05-05T13:50:57Z</time>
      </trkpt>
      <trkpt lat="43.52091" lon="1.4718">
        <ele>252</ele>
        <time>2021-05-05T13:51:13Z</time>
      </trkpt>
      <trkpt lat="43.52072" lon="1.4718">
        <ele>253.93</ele>
        <time>2021-05-05T13:51:27Z</time>
      </trkpt>
      <trkpt lat="43.52043" lon="1.47177">
        <ele>255.85</ele>
        <time>2021-05-05T13:51:47Z</time>
      </trkpt>
      <trkpt lat="43.52016" lon="1.47163">
        <ele>257.77</ele>
        <time>2021-05-05T13:52:06Z</time>
      </trkpt>
      <trkpt lat="43.51988" lon="1.47147">
        <ele>258.73</ele>
        <time>2021-05-05T13:52:22Z</time>
      </trkpt>
      <trkpt lat="43.51975" lon="1.47143">
        <ele>259.69</ele>
        <time>2021-05-05T13:52:32Z</time>
      </trkpt>
      <trkpt lat="43.51973" lon="1.47143">
        <ele>259.69</ele>
        <time>2021-05-05T13:52:33Z</time>
      </trkpt>
      <trkpt lat="43.51972" lon="1.47142">
        <ele>259.69</ele>
        <time>2021-05-05T13:52:34Z</time>
      </trkpt>
      <trkpt lat="43.51963" lon="1.4714">
        <ele>258.25</ele>
        <time>2021-05-05T13:52:39Z</time>
      </trkpt>
      <trkpt lat="43.51944" lon="1.47151">
        <ele>259.69</ele>
        <time>2021-05-05T13:52:52Z</time>
      </trkpt>
      <trkpt lat="43.51924" lon="1.47173">
        <ele>259.69</ele>
        <time>2021-05-05T13:53:07Z</time>
      </trkpt>
      <trkpt lat="43.51897" lon="1.47187">
        <ele>258.73</ele>
        <time>2021-05-05T13:53:25Z</time>
      </trkpt>
      <trkpt lat="43.51872" lon="1.472">
        <ele>258.25</ele>
        <time>2021-05-05T13:53:41Z</time>
      </trkpt>
      <trkpt lat="43.51854" lon="1.47206">
        <ele>257.29</ele>
        <time>2021-05-05T13:53:54Z</time>
      </trkpt>
      <trkpt lat="43.51832" lon="1.47209">
        <ele>255.85</ele>
        <time>2021-05-05T13:54:06Z</time>
      </trkpt>
      <trkpt lat="43.51804" lon="1.47216">
        <ele>255.85</ele>
        <time>2021-05-05T13:54:23Z</time>
      </trkpt>
      <trkpt lat="43.51781" lon="1.47219">
        <ele>255.85</ele>
        <time>2021-05-05T13:54:37Z</time>
      </trkpt>
      <trkpt lat="43.51753" lon="1.47219">
        <ele>255.85</ele>
        <time>2021-05-05T13:54:54Z</time>
      </trkpt>
      <trkpt lat="43.51728" lon="1.47212">
        <ele>255.85</ele>
        <time>2021-05-05T13:55:08Z</time>
      </trkpt>
      <trkpt lat="43.51709" lon="1.47215">
        <ele>254.89</ele>
        <time>2021-05-05T13:55:20Z</time>
      </trkpt>
      <trkpt lat="43.51685" lon="1.47225">
        <ele>252.96</ele>
        <time>2021-05-05T13:55:37Z</time>
      </trkpt>
      <trkpt lat="43.51655" lon="1.47234">
        <ele>252</ele>
        <time>2021-05-05T13:55:57Z</time>
      </trkpt>
      <trkpt lat="43.51622" lon="1.4725">
        <ele>251.04</ele>
        <time>2021-05-05T13:56:19Z</time>
      </trkpt>
      <trkpt lat="43.51597" lon="1.47259">
        <ele>250.08</ele>
        <time>2021-05-05T13:56:36Z</time>
      </trkpt>
      <trkpt lat="43.51573" lon="1.47268">
        <ele>249.12</ele>
        <time>2021-05-05T13:56:51Z</time>
      </trkpt>
      <trkpt lat="43.51554" lon="1.47276">
        <ele>248.64</ele>
        <time>2021-05-05T13:57:04Z</time>
      </trkpt>
      <trkpt lat="43.51527" lon="1.47284">
        <ele>249.12</ele>
        <time>2021-05-05T13:57:20Z</time>
      </trkpt>
      <trkpt lat="43.51524" lon="1.47284">
        <ele>249.12</ele>
        <time>2021-05-05T13:57:22Z</time>
      </trkpt>
      <trkpt lat="43.51523" lon="1.47284">
        <ele>249.12</ele>
        <time>2021-05-05T13:57:23Z</time>
      </trkpt>
      <trkpt lat="43.51522" lon="1.47285">
        <ele>249.12</ele>
        <time>2021-05-05T13:57:24Z</time>
      </trkpt>
      <trkpt lat="43.5152" lon="1.47285">
        <ele>249.12</ele>
        <time>2021-05-05T13:57:25Z</time>
      </trkpt>
      <trkpt lat="43.51518" lon="1.47286">
        <ele>249.12</ele>
        <time>2021-05-05T13:57:26Z</time>
      </trkpt>
      <trkpt lat="43.51517" lon="1.47286">
        <ele>249.12</ele>
        <time>2021-05-05T13:57:27Z</time>
      </trkpt>
      <trkpt lat="43.51496" lon="1.47288">
        <ele>250.08</ele>
        <time>2021-05-05T13:57:41Z</time>
      </trkpt>
      <trkpt lat="43.51474" lon="1.47294">
        <ele>251.52</ele>
        <time>2021-05-05T13:57:56Z</time>
      </trkpt>
      <trkpt lat="43.51472" lon="1.47295">
        <ele>251.52</ele>
        <time>2021-05-05T13:57:57Z</time>
      </trkpt>
      <trkpt lat="43.51452" lon="1.47299">
        <ele>252.48</ele>
        <time>2021-05-05T13:58:13Z</time>
      </trkpt>
      <trkpt lat="43.51449" lon="1.47306">
        <ele>252.96</ele>
        <time>2021-05-05T13:58:31Z</time>
      </trkpt>
      <trkpt lat="43.51449" lon="1.47305">
        <ele>252.96</ele>
        <time>2021-05-05T13:58:55Z</time>
      </trkpt>
      <trkpt lat="43.51452" lon="1.47309">
        <ele>252.96</ele>
        <time>2021-05-05T13:59:24Z</time>
      </trkpt>
      <trkpt lat="43.51452" lon="1.47307">
        <ele>252.96</ele>
        <time>2021-05-05T13:59:51Z</time>
      </trkpt>
      <trkpt lat="43.51453" lon="1.4731">
        <ele>252.96</ele>
        <time>2021-05-05T14:00:15Z</time>
      </trkpt>
      <trkpt lat="43.51454" lon="1.47311">
        <ele>252.96</ele>
        <time>2021-05-05T14:00:36Z</time>
      </trkpt>
      <trkpt lat="43.51454" lon="1.47311">
        <ele>252.96</ele>
        <time>2021-05-05T14:00:57Z</time>
      </trkpt>
      <trkpt lat="43.51454" lon="1.47311">
        <ele>252.96</ele>
        <time>2021-05-05T14:01:23Z</time>
      </trkpt>
      <trkpt lat="43.51451" lon="1.47308">
        <ele>252.96</ele>
        <time>2021-05-05T14:01:45Z</time>
      </trkpt>
      <trkpt lat="43.51445" lon="1.4731">
        <ele>252.96</ele>
        <time>2021-05-05T14:01:52Z</time>
      </trkpt>
      <trkpt lat="43.51437" lon="1.47327">
        <ele>253.44</ele>
        <time>2021-05-05T14:02:02Z</time>
      </trkpt>
      <trkpt lat="43.51436" lon="1.47331">
        <ele>253.93</ele>
        <time>2021-05-05T14:02:05Z</time>
      </trkpt>
      <trkpt lat="43.51422" lon="1.47365">
        <ele>254.89</ele>
        <time>2021-05-05T14:02:25Z</time>
      </trkpt>
      <trkpt lat="43.51411" lon="1.47399">
        <ele>256.33</ele>
        <time>2021-05-05T14:02:43Z</time>
      </trkpt>
      <trkpt lat="43.51399" lon="1.47431">
        <ele>258.25</ele>
        <time>2021-05-05T14:03:00Z</time>
      </trkpt>
      <trkpt lat="43.51396" lon="1.47448">
        <ele>258.73</ele>
        <time>2021-05-05T14:03:08Z</time>
      </trkpt>
      <trkpt lat="43.51396" lon="1.4745">
        <ele>258.73</ele>
        <time>2021-05-05T14:03:09Z</time>
      </trkpt>
      <trkpt lat="43.51404" lon="1.47468">
        <ele>258.73</ele>
        <time>2021-05-05T14:03:18Z</time>
      </trkpt>
      <trkpt lat="43.51418" lon="1.47498">
        <ele>258.73</ele>
        <time>2021-05-05T14:03:38Z</time>
      </trkpt>
      <trkpt lat="43.5143" lon="1.47519">
        <ele>257.29</ele>
        <time>2021-05-05T14:03:51Z</time>
      </trkpt>
      <trkpt lat="43.5144" lon="1.47537">
        <ele>256.81</ele>
        <time>2021-05-05T14:04:06Z</time>
      </trkpt>
      <trkpt lat="43.51438" lon="1.47539">
        <ele>256.81</ele>
        <time>2021-05-05T14:04:09Z</time>
      </trkpt>
      <trkpt lat="43.51439" lon="1.47544">
        <ele>256.33</ele>
        <time>2021-05-05T14:04:13Z</time>
      </trkpt>
      <trkpt lat="43.51444" lon="1.47548">
        <ele>256.33</ele>
        <time>2021-05-05T14:04:17Z</time>
      </trkpt>
      <trkpt lat="43.51451" lon="1.47556">
        <ele>256.33</ele>
        <time>2021-05-05T14:04:22Z</time>
      </trkpt>
      <trkpt lat="43.51464" lon="1.47573">
        <ele>254.89</ele>
        <time>2021-05-05T14:04:33Z</time>
      </trkpt>
      <trkpt lat="43.51467" lon="1.47573">
        <ele>255.37</ele>
        <time>2021-05-05T14:04:35Z</time>
      </trkpt>
      <trkpt lat="43.5147" lon="1.47573">
        <ele>254.89</ele>
        <time>2021-05-05T14:04:36Z</time>
      </trkpt>
      <trkpt lat="43.51471" lon="1.47572">
        <ele>254.89</ele>
        <time>2021-05-05T14:04:37Z</time>
      </trkpt>
      <trkpt lat="43.51473" lon="1.47572">
        <ele>254.89</ele>
        <time>2021-05-05T14:04:38Z</time>
      </trkpt>
      <trkpt lat="43.51474" lon="1.47572">
        <ele>254.89</ele>
        <time>2021-05-05T14:04:39Z</time>
      </trkpt>
      <trkpt lat="43.51499" lon="1.4758">
        <ele>256.33</ele>
        <time>2021-05-05T14:04:57Z</time>
      </trkpt>
      <trkpt lat="43.51519" lon="1.47583">
        <ele>257.29</ele>
        <time>2021-05-05T14:05:13Z</time>
      </trkpt>
      <trkpt lat="43.51543" lon="1.47589">
        <ele>258.25</ele>
        <time>2021-05-05T14:05:30Z</time>
      </trkpt>
      <trkpt lat="43.51567" lon="1.47591">
        <ele>259.21</ele>
        <time>2021-05-05T14:05:46Z</time>
      </trkpt>
      <trkpt lat="43.5159" lon="1.47599">
        <ele>260.17</ele>
        <time>2021-05-05T14:06:02Z</time>
      </trkpt>
      <trkpt lat="43.51612" lon="1.47606">
        <ele>262.1</ele>
        <time>2021-05-05T14:06:18Z</time>
      </trkpt>
      <trkpt lat="43.51633" lon="1.47616">
        <ele>263.54</ele>
        <time>2021-05-05T14:06:33Z</time>
      </trkpt>
      <trkpt lat="43.51657" lon="1.47622">
        <ele>265.46</ele>
        <time>2021-05-05T14:06:50Z</time>
      </trkpt>
      <trkpt lat="43.51678" lon="1.47631">
        <ele>265.94</ele>
        <time>2021-05-05T14:07:05Z</time>
      </trkpt>
      <trkpt lat="43.51693" lon="1.47634">
        <ele>264.98</ele>
        <time>2021-05-05T14:07:16Z</time>
      </trkpt>
      <trkpt lat="43.51711" lon="1.47642">
        <ele>263.54</ele>
        <time>2021-05-05T14:07:30Z</time>
      </trkpt>
      <trkpt lat="43.51716" lon="1.47645">
        <ele>263.06</ele>
        <time>2021-05-05T14:07:34Z</time>
      </trkpt>
      <trkpt lat="43.51717" lon="1.47645">
        <ele>263.06</ele>
        <time>2021-05-05T14:07:35Z</time>
      </trkpt>
      <trkpt lat="43.51718" lon="1.47646">
        <ele>263.06</ele>
        <time>2021-05-05T14:07:36Z</time>
      </trkpt>
      <trkpt lat="43.51735" lon="1.47665">
        <ele>260.65</ele>
        <time>2021-05-05T14:07:52Z</time>
      </trkpt>
      <trkpt lat="43.51737" lon="1.47667">
        <ele>260.17</ele>
        <time>2021-05-05T14:07:54Z</time>
      </trkpt>
      <trkpt lat="43.51738" lon="1.47668">
        <ele>259.69</ele>
        <time>2021-05-05T14:07:55Z</time>
      </trkpt>
      <trkpt lat="43.51739" lon="1.4767">
        <ele>259.69</ele>
        <time>2021-05-05T14:07:56Z</time>
      </trkpt>
      <trkpt lat="43.5174" lon="1.47671">
        <ele>259.69</ele>
        <time>2021-05-05T14:07:57Z</time>
      </trkpt>
      <trkpt lat="43.51741" lon="1.47672">
        <ele>259.69</ele>
        <time>2021-05-05T14:07:58Z</time>
      </trkpt>
      <trkpt lat="43.51753" lon="1.47691">
        <ele>257.77</ele>
        <time>2021-05-05T14:08:11Z</time>
      </trkpt>
      <trkpt lat="43.51768" lon="1.47715">
        <ele>256.81</ele>
        <time>2021-05-05T14:08:27Z</time>
      </trkpt>
      <trkpt lat="43.51769" lon="1.47717">
        <ele>256.81</ele>
        <time>2021-05-05T14:08:28Z</time>
      </trkpt>
      <trkpt lat="43.5178" lon="1.47733">
        <ele>255.37</ele>
        <time>2021-05-05T14:08:40Z</time>
      </trkpt>
      <trkpt lat="43.51795" lon="1.47756">
        <ele>254.41</ele>
        <time>2021-05-05T14:08:55Z</time>
      </trkpt>
      <trkpt lat="43.51805" lon="1.47771">
        <ele>252.96</ele>
        <time>2021-05-05T14:09:06Z</time>
      </trkpt>
      <trkpt lat="43.51813" lon="1.47788">
        <ele>252</ele>
        <time>2021-05-05T14:09:15Z</time>
      </trkpt>
      <trkpt lat="43.51826" lon="1.47809">
        <ele>250.56</ele>
        <time>2021-05-05T14:09:29Z</time>
      </trkpt>
      <trkpt lat="43.51838" lon="1.4783">
        <ele>249.6</ele>
        <time>2021-05-05T14:09:41Z</time>
      </trkpt>
      <trkpt lat="43.51854" lon="1.47852">
        <ele>248.64</ele>
        <time>2021-05-05T14:09:57Z</time>
      </trkpt>
      <trkpt lat="43.51859" lon="1.47858">
        <ele>247.68</ele>
        <time>2021-05-05T14:10:02Z</time>
      </trkpt>
      <trkpt lat="43.5186" lon="1.4786">
        <ele>247.68</ele>
        <time>2021-05-05T14:10:03Z</time>
      </trkpt>
      <trkpt lat="43.51865" lon="1.47876">
        <ele>247.2</ele>
        <time>2021-05-05T14:10:17Z</time>
      </trkpt>
      <trkpt lat="43.51862" lon="1.47879">
        <ele>248.64</ele>
        <time>2021-05-05T14:10:23Z</time>
      </trkpt>
      <trkpt lat="43.51858" lon="1.47882">
        <ele>248.64</ele>
        <time>2021-05-05T14:10:31Z</time>
      </trkpt>
      <trkpt lat="43.5185" lon="1.47897">
        <ele>251.04</ele>
        <time>2021-05-05T14:10:45Z</time>
      </trkpt>
      <trkpt lat="43.51842" lon="1.47909">
        <ele>251.52</ele>
        <time>2021-05-05T14:10:55Z</time>
      </trkpt>
      <trkpt lat="43.51841" lon="1.4791">
        <ele>251.52</ele>
        <time>2021-05-05T14:10:56Z</time>
      </trkpt>
      <trkpt lat="43.51829" lon="1.47926">
        <ele>252.48</ele>
        <time>2021-05-05T14:11:11Z</time>
      </trkpt>
      <trkpt lat="43.51816" lon="1.47941">
        <ele>253.93</ele>
        <time>2021-05-05T14:11:25Z</time>
      </trkpt>
      <trkpt lat="43.518" lon="1.47964">
        <ele>253.93</ele>
        <time>2021-05-05T14:11:41Z</time>
      </trkpt>
      <trkpt lat="43.5179" lon="1.47989">
        <ele>253.93</ele>
        <time>2021-05-05T14:11:58Z</time>
      </trkpt>
      <trkpt lat="43.51787" lon="1.48003">
        <ele>253.93</ele>
        <time>2021-05-05T14:12:04Z</time>
      </trkpt>
      <trkpt lat="43.51787" lon="1.48005">
        <ele>253.93</ele>
        <time>2021-05-05T14:12:05Z</time>
      </trkpt>
      <trkpt lat="43.51788" lon="1.48007">
        <ele>253.93</ele>
        <time>2021-05-05T14:12:06Z</time>
      </trkpt>
      <trkpt lat="43.51788" lon="1.4801">
        <ele>253.93</ele>
        <time>2021-05-05T14:12:07Z</time>
      </trkpt>
      <trkpt lat="43.51788" lon="1.48012">
        <ele>252.48</ele>
        <time>2021-05-05T14:12:08Z</time>
      </trkpt>
      <trkpt lat="43.51789" lon="1.48014">
        <ele>252.48</ele>
        <time>2021-05-05T14:12:09Z</time>
      </trkpt>
      <trkpt lat="43.5179" lon="1.48016">
        <ele>252.48</ele>
        <time>2021-05-05T14:12:10Z</time>
      </trkpt>
      <trkpt lat="43.51808" lon="1.48032">
        <ele>252</ele>
        <time>2021-05-05T14:12:25Z</time>
      </trkpt>
      <trkpt lat="43.51824" lon="1.48047">
        <ele>252</ele>
        <time>2021-05-05T14:12:41Z</time>
      </trkpt>
      <trkpt lat="43.51842" lon="1.48062">
        <ele>251.52</ele>
        <time>2021-05-05T14:12:57Z</time>
      </trkpt>
      <trkpt lat="43.51858" lon="1.48084">
        <ele>251.04</ele>
        <time>2021-05-05T14:13:11Z</time>
      </trkpt>
      <trkpt lat="43.51859" lon="1.48086">
        <ele>251.04</ele>
        <time>2021-05-05T14:13:12Z</time>
      </trkpt>
      <trkpt lat="43.5186" lon="1.48087">
        <ele>251.04</ele>
        <time>2021-05-05T14:13:13Z</time>
      </trkpt>
      <trkpt lat="43.51871" lon="1.48107">
        <ele>250.56</ele>
        <time>2021-05-05T14:13:28Z</time>
      </trkpt>
      <trkpt lat="43.51874" lon="1.48132">
        <ele>249.6</ele>
        <time>2021-05-05T14:13:41Z</time>
      </trkpt>
      <trkpt lat="43.51875" lon="1.48134">
        <ele>249.12</ele>
        <time>2021-05-05T14:13:42Z</time>
      </trkpt>
      <trkpt lat="43.51867" lon="1.48167">
        <ele>249.12</ele>
        <time>2021-05-05T14:14:01Z</time>
      </trkpt>
      <trkpt lat="43.51861" lon="1.48196">
        <ele>248.64</ele>
        <time>2021-05-05T14:14:16Z</time>
      </trkpt>
      <trkpt lat="43.51874" lon="1.48213">
        <ele>248.16</ele>
        <time>2021-05-05T14:14:28Z</time>
      </trkpt>
      <trkpt lat="43.51889" lon="1.48225">
        <ele>247.68</ele>
        <time>2021-05-05T14:14:42Z</time>
      </trkpt>
      <trkpt lat="43.51909" lon="1.48243">
        <ele>247.2</ele>
        <time>2021-05-05T14:14:58Z</time>
      </trkpt>
      <trkpt lat="43.51929" lon="1.48253">
        <ele>247.2</ele>
        <time>2021-05-05T14:15:13Z</time>
      </trkpt>
      <trkpt lat="43.51936" lon="1.4825">
        <ele>247.2</ele>
        <time>2021-05-05T14:15:20Z</time>
      </trkpt>
      <trkpt lat="43.51942" lon="1.48248">
        <ele>246.72</ele>
        <time>2021-05-05T14:15:25Z</time>
      </trkpt>
      <trkpt lat="43.51943" lon="1.48249">
        <ele>246.72</ele>
        <time>2021-05-05T14:15:26Z</time>
      </trkpt>
      <trkpt lat="43.51965" lon="1.48258">
        <ele>246.72</ele>
        <time>2021-05-05T14:15:41Z</time>
      </trkpt>
      <trkpt lat="43.51982" lon="1.48277">
        <ele>245.27</ele>
        <time>2021-05-05T14:15:56Z</time>
      </trkpt>
      <trkpt lat="43.52004" lon="1.48303">
        <ele>243.35</ele>
        <time>2021-05-05T14:16:14Z</time>
      </trkpt>
      <trkpt lat="43.52017" lon="1.48319">
        <ele>243.35</ele>
        <time>2021-05-05T14:16:26Z</time>
      </trkpt>
      <trkpt lat="43.5203" lon="1.48332">
        <ele>242.87</ele>
        <time>2021-05-05T14:16:38Z</time>
      </trkpt>
      <trkpt lat="43.52033" lon="1.48338">
        <ele>242.87</ele>
        <time>2021-05-05T14:16:51Z</time>
      </trkpt>
      <trkpt lat="43.52033" lon="1.4834">
        <ele>242.87</ele>
        <time>2021-05-05T14:16:53Z</time>
      </trkpt>
      <trkpt lat="43.52033" lon="1.48342">
        <ele>242.87</ele>
        <time>2021-05-05T14:16:54Z</time>
      </trkpt>
      <trkpt lat="43.52032" lon="1.48343">
        <ele>242.87</ele>
        <time>2021-05-05T14:16:55Z</time>
      </trkpt>
      <trkpt lat="43.52032" lon="1.48345">
        <ele>242.87</ele>
        <time>2021-05-05T14:16:56Z</time>
      </trkpt>
      <trkpt lat="43.52032" lon="1.48346">
        <ele>242.87</ele>
        <time>2021-05-05T14:16:57Z</time>
      </trkpt>
      <trkpt lat="43.52019" lon="1.48365">
        <ele>242.87</ele>
        <time>2021-05-05T14:17:12Z</time>
      </trkpt>
      <trkpt lat="43.52012" lon="1.48375">
        <ele>242.87</ele>
        <time>2021-05-05T14:17:19Z</time>
      </trkpt>
      <trkpt lat="43.52011" lon="1.48376">
        <ele>242.87</ele>
        <time>2021-05-05T14:17:20Z</time>
      </trkpt>
      <trkpt lat="43.5201" lon="1.48378">
        <ele>242.87</ele>
        <time>2021-05-05T14:17:21Z</time>
      </trkpt>
      <trkpt lat="43.52009" lon="1.48379">
        <ele>242.87</ele>
        <time>2021-05-05T14:17:22Z</time>
      </trkpt>
      <trkpt lat="43.52008" lon="1.4838">
        <ele>242.87</ele>
        <time>2021-05-05T14:17:23Z</time>
      </trkpt>
      <trkpt lat="43.52007" lon="1.48382">
        <ele>242.87</ele>
        <time>2021-05-05T14:17:24Z</time>
      </trkpt>
      <trkpt lat="43.52006" lon="1.48383">
        <ele>242.87</ele>
        <time>2021-05-05T14:17:25Z</time>
      </trkpt>
      <trkpt lat="43.52006" lon="1.48385">
        <ele>242.87</ele>
        <time>2021-05-05T14:17:26Z</time>
      </trkpt>
      <trkpt lat="43.52005" lon="1.48386">
        <ele>242.87</ele>
        <time>2021-05-05T14:17:27Z</time>
      </trkpt>
      <trkpt lat="43.5199" lon="1.4841">
        <ele>244.31</ele>
        <time>2021-05-05T14:17:45Z</time>
      </trkpt>
      <trkpt lat="43.5197" lon="1.48435">
        <ele>245.27</ele>
        <time>2021-05-05T14:18:04Z</time>
      </trkpt>
      <trkpt lat="43.5196" lon="1.48459">
        <ele>247.2</ele>
        <time>2021-05-05T14:18:19Z</time>
      </trkpt>
      <trkpt lat="43.51978" lon="1.48486">
        <ele>246.23</ele>
        <time>2021-05-05T14:18:33Z</time>
      </trkpt>
      <trkpt lat="43.51999" lon="1.48507">
        <ele>243.83</ele>
        <time>2021-05-05T14:18:50Z</time>
      </trkpt>
      <trkpt lat="43.52007" lon="1.48517">
        <ele>243.83</ele>
        <time>2021-05-05T14:18:56Z</time>
      </trkpt>
      <trkpt lat="43.52008" lon="1.48518">
        <ele>242.87</ele>
        <time>2021-05-05T14:18:57Z</time>
      </trkpt>
      <trkpt lat="43.52027" lon="1.48535">
        <ele>241.91</ele>
        <time>2021-05-05T14:19:11Z</time>
      </trkpt>
      <trkpt lat="43.52046" lon="1.48553">
        <ele>240.47</ele>
        <time>2021-05-05T14:19:24Z</time>
      </trkpt>
      <trkpt lat="43.52063" lon="1.48568">
        <ele>237.58</ele>
        <time>2021-05-05T14:19:37Z</time>
      </trkpt>
      <trkpt lat="43.52078" lon="1.48584">
        <ele>233.74</ele>
        <time>2021-05-05T14:19:49Z</time>
      </trkpt>
      <trkpt lat="43.52085" lon="1.48591">
        <ele>231.81</ele>
        <time>2021-05-05T14:19:55Z</time>
      </trkpt>
      <trkpt lat="43.52095" lon="1.48606">
        <ele>227.97</ele>
        <time>2021-05-05T14:20:05Z</time>
      </trkpt>
      <trkpt lat="43.52097" lon="1.48609">
        <ele>227.01</ele>
        <time>2021-05-05T14:20:07Z</time>
      </trkpt>
      <trkpt lat="43.52098" lon="1.4861">
        <ele>226.53</ele>
        <time>2021-05-05T14:20:08Z</time>
      </trkpt>
      <trkpt lat="43.52098" lon="1.48612">
        <ele>226.53</ele>
        <time>2021-05-05T14:20:09Z</time>
      </trkpt>
      <trkpt lat="43.52106" lon="1.48629">
        <ele>223.16</ele>
        <time>2021-05-05T14:20:19Z</time>
      </trkpt>
      <trkpt lat="43.52108" lon="1.48631">
        <ele>223.16</ele>
        <time>2021-05-05T14:20:21Z</time>
      </trkpt>
      <trkpt lat="43.52109" lon="1.48633">
        <ele>222.68</ele>
        <time>2021-05-05T14:20:22Z</time>
      </trkpt>
      <trkpt lat="43.5211" lon="1.48634">
        <ele>222.68</ele>
        <time>2021-05-05T14:20:23Z</time>
      </trkpt>
      <trkpt lat="43.52111" lon="1.48636">
        <ele>222.68</ele>
        <time>2021-05-05T14:20:24Z</time>
      </trkpt>
      <trkpt lat="43.52112" lon="1.48638">
        <ele>221.72</ele>
        <time>2021-05-05T14:20:25Z</time>
      </trkpt>
      <trkpt lat="43.52113" lon="1.4864">
        <ele>221.72</ele>
        <time>2021-05-05T14:20:26Z</time>
      </trkpt>
      <trkpt lat="43.52114" lon="1.48642">
        <ele>221.24</ele>
        <time>2021-05-05T14:20:27Z</time>
      </trkpt>
      <trkpt lat="43.52126" lon="1.48664">
        <ele>218.84</ele>
        <time>2021-05-05T14:20:39Z</time>
      </trkpt>
      <trkpt lat="43.52129" lon="1.48666">
        <ele>218.36</ele>
        <time>2021-05-05T14:20:41Z</time>
      </trkpt>
      <trkpt lat="43.52146" lon="1.48682">
        <ele>215.95</ele>
        <time>2021-05-05T14:20:54Z</time>
      </trkpt>
      <trkpt lat="43.52161" lon="1.48687">
        <ele>214.03</ele>
        <time>2021-05-05T14:21:02Z</time>
      </trkpt>
      <trkpt lat="43.52163" lon="1.48687">
        <ele>214.03</ele>
        <time>2021-05-05T14:21:03Z</time>
      </trkpt>
      <trkpt lat="43.52165" lon="1.48687">
        <ele>213.55</ele>
        <time>2021-05-05T14:21:04Z</time>
      </trkpt>
      <trkpt lat="43.52166" lon="1.48687">
        <ele>213.55</ele>
        <time>2021-05-05T14:21:05Z</time>
      </trkpt>
      <trkpt lat="43.52168" lon="1.48687">
        <ele>213.55</ele>
        <time>2021-05-05T14:21:06Z</time>
      </trkpt>
      <trkpt lat="43.52169" lon="1.48687">
        <ele>213.07</ele>
        <time>2021-05-05T14:21:07Z</time>
      </trkpt>
      <trkpt lat="43.52195" lon="1.48693">
        <ele>210.19</ele>
        <time>2021-05-05T14:21:26Z</time>
      </trkpt>
      <trkpt lat="43.52197" lon="1.48691">
        <ele>210.19</ele>
        <time>2021-05-05T14:21:29Z</time>
      </trkpt>
      <trkpt lat="43.52199" lon="1.48689">
        <ele>209.22</ele>
        <time>2021-05-05T14:21:32Z</time>
      </trkpt>
      <trkpt lat="43.52202" lon="1.48686">
        <ele>208.74</ele>
        <time>2021-05-05T14:21:35Z</time>
      </trkpt>
      <trkpt lat="43.52222" lon="1.48677">
        <ele>206.82</ele>
        <time>2021-05-05T14:21:46Z</time>
      </trkpt>
      <trkpt lat="43.52241" lon="1.48684">
        <ele>205.38</ele>
        <time>2021-05-05T14:22:00Z</time>
      </trkpt>
      <trkpt lat="43.52256" lon="1.48696">
        <ele>204.42</ele>
        <time>2021-05-05T14:22:11Z</time>
      </trkpt>
      <trkpt lat="43.52259" lon="1.48699">
        <ele>203.46</ele>
        <time>2021-05-05T14:22:13Z</time>
      </trkpt>
      <trkpt lat="43.52277" lon="1.48713">
        <ele>202.01</ele>
        <time>2021-05-05T14:22:25Z</time>
      </trkpt>
      <trkpt lat="43.52284" lon="1.48722">
        <ele>201.05</ele>
        <time>2021-05-05T14:22:32Z</time>
      </trkpt>
      <trkpt lat="43.52286" lon="1.48723">
        <ele>201.05</ele>
        <time>2021-05-05T14:22:33Z</time>
      </trkpt>
      <trkpt lat="43.52288" lon="1.48724">
        <ele>201.05</ele>
        <time>2021-05-05T14:22:34Z</time>
      </trkpt>
      <trkpt lat="43.52289" lon="1.48726">
        <ele>201.05</ele>
        <time>2021-05-05T14:22:35Z</time>
      </trkpt>
      <trkpt lat="43.52291" lon="1.48728">
        <ele>201.05</ele>
        <time>2021-05-05T14:22:36Z</time>
      </trkpt>
      <trkpt lat="43.52292" lon="1.4873">
        <ele>201.05</ele>
        <time>2021-05-05T14:22:37Z</time>
      </trkpt>
      <trkpt lat="43.52293" lon="1.48731">
        <ele>200.57</ele>
        <time>2021-05-05T14:22:38Z</time>
      </trkpt>
      <trkpt lat="43.52294" lon="1.48732">
        <ele>200.09</ele>
        <time>2021-05-05T14:22:39Z</time>
      </trkpt>
      <trkpt lat="43.52296" lon="1.48733">
        <ele>200.09</ele>
        <time>2021-05-05T14:22:40Z</time>
      </trkpt>
      <trkpt lat="43.52296" lon="1.48734">
        <ele>200.09</ele>
        <time>2021-05-05T14:22:41Z</time>
      </trkpt>
      <trkpt lat="43.52298" lon="1.48736">
        <ele>200.09</ele>
        <time>2021-05-05T14:22:42Z</time>
      </trkpt>
      <trkpt lat="43.52299" lon="1.48737">
        <ele>200.09</ele>
        <time>2021-05-05T14:22:43Z</time>
      </trkpt>
      <trkpt lat="43.52301" lon="1.48739">
        <ele>199.61</ele>
        <time>2021-05-05T14:22:44Z</time>
      </trkpt>
      <trkpt lat="43.52303" lon="1.48741">
        <ele>199.61</ele>
        <time>2021-05-05T14:22:45Z</time>
      </trkpt>
      <trkpt lat="43.52304" lon="1.48742">
        <ele>199.61</ele>
        <time>2021-05-05T14:22:46Z</time>
      </trkpt>
      <trkpt lat="43.52318" lon="1.48756">
        <ele>198.65</ele>
        <time>2021-05-05T14:22:57Z</time>
      </trkpt>
      <trkpt lat="43.52339" lon="1.48776">
        <ele>196.25</ele>
        <time>2021-05-05T14:23:13Z</time>
      </trkpt>
      <trkpt lat="43.52358" lon="1.48794">
        <ele>193.84</ele>
        <time>2021-05-05T14:23:28Z</time>
      </trkpt>
      <trkpt lat="43.52359" lon="1.48802">
        <ele>193.84</ele>
        <time>2021-05-05T14:23:32Z</time>
      </trkpt>
      <trkpt lat="43.52358" lon="1.48803">
        <ele>193.84</ele>
        <time>2021-05-05T14:23:33Z</time>
      </trkpt>
      <trkpt lat="43.52342" lon="1.48818">
        <ele>193.84</ele>
        <time>2021-05-05T14:23:46Z</time>
      </trkpt>
      <trkpt lat="43.52341" lon="1.48819">
        <ele>193.84</ele>
        <time>2021-05-05T14:23:47Z</time>
      </trkpt>
      <trkpt lat="43.5234" lon="1.4882">
        <ele>193.84</ele>
        <time>2021-05-05T14:23:48Z</time>
      </trkpt>
      <trkpt lat="43.52338" lon="1.48821">
        <ele>193.84</ele>
        <time>2021-05-05T14:23:49Z</time>
      </trkpt>
      <trkpt lat="43.52337" lon="1.48822">
        <ele>193.84</ele>
        <time>2021-05-05T14:23:50Z</time>
      </trkpt>
      <trkpt lat="43.52336" lon="1.48822">
        <ele>193.84</ele>
        <time>2021-05-05T14:23:51Z</time>
      </trkpt>
      <trkpt lat="43.52334" lon="1.48823">
        <ele>193.84</ele>
        <time>2021-05-05T14:23:52Z</time>
      </trkpt>
      <trkpt lat="43.52333" lon="1.48823">
        <ele>193.84</ele>
        <time>2021-05-05T14:23:53Z</time>
      </trkpt>
      <trkpt lat="43.52313" lon="1.48826">
        <ele>193.36</ele>
        <time>2021-05-05T14:24:06Z</time>
      </trkpt>
      <trkpt lat="43.52293" lon="1.48831">
        <ele>193.36</ele>
        <time>2021-05-05T14:24:19Z</time>
      </trkpt>
      <trkpt lat="43.52268" lon="1.48839">
        <ele>194.8</ele>
        <time>2021-05-05T14:24:33Z</time>
      </trkpt>
      <trkpt lat="43.5225" lon="1.4885">
        <ele>195.77</ele>
        <time>2021-05-05T14:24:45Z</time>
      </trkpt>
      <trkpt lat="43.52248" lon="1.48852">
        <ele>195.77</ele>
        <time>2021-05-05T14:24:47Z</time>
      </trkpt>
      <trkpt lat="43.52247" lon="1.48854">
        <ele>195.77</ele>
        <time>2021-05-05T14:24:48Z</time>
      </trkpt>
      <trkpt lat="43.52245" lon="1.48855">
        <ele>195.77</ele>
        <time>2021-05-05T14:24:49Z</time>
      </trkpt>
      <trkpt lat="43.52244" lon="1.48856">
        <ele>195.28</ele>
        <time>2021-05-05T14:24:50Z</time>
      </trkpt>
      <trkpt lat="43.52242" lon="1.48858">
        <ele>195.28</ele>
        <time>2021-05-05T14:24:51Z</time>
      </trkpt>
      <trkpt lat="43.5224" lon="1.48859">
        <ele>195.28</ele>
        <time>2021-05-05T14:24:52Z</time>
      </trkpt>
      <trkpt lat="43.5223" lon="1.48872">
        <ele>195.28</ele>
        <time>2021-05-05T14:24:59Z</time>
      </trkpt>
      <trkpt lat="43.52229" lon="1.48874">
        <ele>195.28</ele>
        <time>2021-05-05T14:25:00Z</time>
      </trkpt>
      <trkpt lat="43.52227" lon="1.48876">
        <ele>194.32</ele>
        <time>2021-05-05T14:25:01Z</time>
      </trkpt>
      <trkpt lat="43.52226" lon="1.48878">
        <ele>194.32</ele>
        <time>2021-05-05T14:25:02Z</time>
      </trkpt>
      <trkpt lat="43.52226" lon="1.48881">
        <ele>194.32</ele>
        <time>2021-05-05T14:25:03Z</time>
      </trkpt>
      <trkpt lat="43.52233" lon="1.48917">
        <ele>191.92</ele>
        <time>2021-05-05T14:25:17Z</time>
      </trkpt>
      <trkpt lat="43.52244" lon="1.48928">
        <ele>190.48</ele>
        <time>2021-05-05T14:25:25Z</time>
      </trkpt>
      <trkpt lat="43.5226" lon="1.48958">
        <ele>189.52</ele>
        <time>2021-05-05T14:25:40Z</time>
      </trkpt>
      <trkpt lat="43.52275" lon="1.48974">
        <ele>188.08</ele>
        <time>2021-05-05T14:25:53Z</time>
      </trkpt>
      <trkpt lat="43.52275" lon="1.48976">
        <ele>188.08</ele>
        <time>2021-05-05T14:25:54Z</time>
      </trkpt>
      <trkpt lat="43.52271" lon="1.48998">
        <ele>187.59</ele>
        <time>2021-05-05T14:26:06Z</time>
      </trkpt>
      <trkpt lat="43.52251" lon="1.49016">
        <ele>187.11</ele>
        <time>2021-05-05T14:26:20Z</time>
      </trkpt>
      <trkpt lat="43.52231" lon="1.49029">
        <ele>185.67</ele>
        <time>2021-05-05T14:26:33Z</time>
      </trkpt>
      <trkpt lat="43.52214" lon="1.49044">
        <ele>186.15</ele>
        <time>2021-05-05T14:26:46Z</time>
      </trkpt>
      <trkpt lat="43.52192" lon="1.49071">
        <ele>185.19</ele>
        <time>2021-05-05T14:27:02Z</time>
      </trkpt>
      <trkpt lat="43.52179" lon="1.49095">
        <ele>184.71</ele>
        <time>2021-05-05T14:27:16Z</time>
      </trkpt>
      <trkpt lat="43.5216" lon="1.49118">
        <ele>183.75</ele>
        <time>2021-05-05T14:27:30Z</time>
      </trkpt>
      <trkpt lat="43.52151" lon="1.49142">
        <ele>183.27</ele>
        <time>2021-05-05T14:27:43Z</time>
      </trkpt>
      <trkpt lat="43.52146" lon="1.4916">
        <ele>182.79</ele>
        <time>2021-05-05T14:27:57Z</time>
      </trkpt>
      <trkpt lat="43.52148" lon="1.49165">
        <ele>182.79</ele>
        <time>2021-05-05T14:28:11Z</time>
      </trkpt>
    </trkseg>
  </trk>
</gpx>